Time;durP1;ratioP1;P1;durP2;ratioP2;P2;SDS_P1;SDS_P2;PMS_P1;PMS_P2;Temp;Humidity;BMP_temperature;BMP_pressure;BME280_temperature;BME280_humidity;BME280_pressure;Samples;Min_cycle;Max_cycle;Signal;HPM_P1;HPM_P2
2021/11/23 19:40:08;;;;;;;36.27;23.33;;;6.60;99.90;;;;;;4878189;29;20739;-96
2021/11/23 19:42:34;;;;;;;40.03;23.20;;;6.50;99.90;;;;;;4911248;29;20257;-96
2021/11/23 19:45:04;;;;;;;39.63;24.40;;;6.60;99.90;;;;;;4928284;29;20194;-96
2021/11/23 19:47:31;;;;;;;42.13;23.93;;;6.60;99.90;;;;;;4929404;29;20218;-95
2021/11/23 19:50:00;;;;;;;42.40;26.20;;;6.60;99.90;;;;;;4935117;29;20210;-96
2021/11/23 19:52:28;;;;;;;40.00;25.07;;;6.60;99.90;;;;;;4934569;29;20589;-96
2021/11/23 19:55:07;;;;;;;40.40;24.30;;;6.60;99.90;;;;;;4933330;29;20201;-96
2021/11/23 19:57:43;;;;;;;39.97;24.83;;;6.60;99.90;;;;;;4939298;29;20820;-96
2021/11/23 20:00:11;;;;;;;42.53;25.27;;;6.60;99.90;;;;;;4943643;29;20186;-96
2021/11/23 20:02:40;;;;;;;40.13;24.13;;;6.50;99.90;;;;;;4942276;29;20335;-96
2021/11/23 20:05:09;;;;;;;40.60;24.70;;;6.50;99.90;;;;;;4940108;29;20178;-95
2021/11/23 20:07:36;;;;;;;40.67;23.77;;;6.60;99.90;;;;;;4939844;29;20279;-96
2021/11/23 20:10:07;;;;;;;42.43;23.70;;;6.60;99.90;;;;;;4921036;29;20186;-96
2021/11/23 20:12:35;;;;;;;41.27;24.37;;;6.60;99.90;;;;;;4938356;29;20249;-96
2021/11/23 20:15:47;;;;;;;38.03;23.43;;;6.60;99.90;;;;;;4959917;29;20185;-95
2021/11/23 20:18:15;;;;;;;41.83;23.77;;;6.60;99.90;;;;;;4964954;23;20257;-95
2021/11/23 20:20:43;;;;;;;33.67;23.03;;;6.60;99.90;;;;;;4943152;28;20214;-95
2021/11/23 20:23:09;;;;;;;40.03;24.47;;;6.60;99.90;;;;;;4943079;28;20225;-95
2021/11/23 20:26:06;;;;;;;40.40;25.07;;;6.60;99.90;;;;;;4943264;28;20178;-95
2021/11/23 20:28:33;;;;;;;38.83;24.40;;;6.60;99.90;;;;;;4958796;28;20193;-94
2021/11/23 20:30:59;;;;;;;40.53;25.27;;;6.70;99.90;;;;;;4959226;28;20193;-95
2021/11/23 20:33:28;;;;;;;39.33;24.27;;;6.70;99.90;;;;;;4944116;28;20178;-95
2021/11/23 20:36:03;;;;;;;41.10;25.37;;;6.70;99.90;;;;;;4927183;28;20188;-96
2021/11/23 20:38:28;;;;;;;45.47;26.67;;;6.60;99.90;;;;;;4960711;29;20196;-94
2021/11/23 20:40:54;;;;;;;46.03;26.87;;;6.60;99.90;;;;;;4944350;29;20182;-95
2021/11/23 20:43:22;;;;;;;45.90;26.43;;;6.60;99.90;;;;;;4948450;29;20206;-96
2021/11/23 20:45:49;;;;;;;44.07;26.47;;;6.60;99.90;;;;;;4958267;28;20186;-96
2021/11/23 20:48:17;;;;;;;49.37;27.10;;;6.70;99.90;;;;;;4938518;29;20285;-96
2021/11/23 20:50:43;;;;;;;48.63;28.90;;;6.60;99.90;;;;;;4925758;29;20190;-95
2021/11/23 20:53:10;;;;;;;44.83;27.40;;;6.60;99.90;;;;;;4927093;29;20196;-95
2021/11/23 20:56:13;;;;;;;43.77;26.13;;;6.60;99.90;;;;;;4921039;29;20223;-95
2021/11/23 20:58:42;;;;;;;43.53;27.07;;;6.70;99.90;;;;;;4925525;29;20654;-95
2021/11/23 21:01:08;;;;;;;42.80;26.53;;;6.60;99.90;;;;;;4925585;29;20288;-95
2021/11/23 21:03:34;;;;;;;48.50;27.37;;;6.60;99.90;;;;;;4925483;29;20263;-96
2021/11/23 21:06:05;;;;;;;46.23;27.40;;;6.60;99.90;;;;;;4922998;29;20207;-95
2021/11/23 21:08:35;;;;;;;52.57;29.33;;;6.60;99.90;;;;;;4930755;29;20614;-95
2021/11/23 21:11:03;;;;;;;50.23;27.73;;;6.60;99.90;;;;;;4924960;29;20196;-95
2021/11/23 21:13:33;;;;;;;50.47;28.13;;;6.60;99.90;;;;;;4937128;29;20237;-95
2021/11/23 21:16:07;;;;;;;56.53;30.00;;;6.60;99.90;;;;;;4930709;29;20260;-95
2021/11/23 21:18:33;;;;;;;49.13;28.60;;;6.60;99.90;;;;;;4933029;29;20241;-96
2021/11/23 21:20:59;;;;;;;47.07;28.73;;;6.60;99.90;;;;;;4925574;29;20190;-95
2021/11/23 21:23:25;;;;;;;50.37;28.90;;;6.60;99.90;;;;;;4931636;29;20233;-95
2021/11/23 21:25:52;;;;;;;47.27;28.33;;;6.60;99.90;;;;;;4928442;29;20225;-95
2021/11/23 21:28:19;;;;;;;43.13;27.00;;;6.60;99.90;;;;;;4926445;29;20233;-96
2021/11/23 21:30:45;;;;;;;43.40;26.60;;;6.60;99.90;;;;;;4934399;29;20216;-95
2021/11/23 21:33:12;;;;;;;45.60;27.53;;;6.60;99.90;;;;;;4930744;29;20217;-95
2021/11/23 21:35:48;;;;;;;46.63;27.27;;;6.60;99.90;;;;;;4930994;29;20202;-93
2021/11/23 21:38:34;;;;;;;49.47;29.47;;;6.60;99.90;;;;;;4947996;29;20193;-95
2021/11/23 21:41:05;;;;;;;45.20;26.83;;;6.60;99.90;;;;;;4942931;29;20259;-95
2021/11/23 21:46:23;;;;;;;45.77;27.20;;;6.60;99.90;;;;;;4956833;29;20189;-95
2021/11/23 21:48:50;;;;;;;43.87;26.70;;;6.60;99.90;;;;;;4933592;29;20208;-95
2021/11/23 21:51:18;;;;;;;47.17;27.27;;;6.60;99.90;;;;;;4935958;29;20215;-95
2021/11/23 21:53:57;;;;;;;49.23;27.33;;;6.60;99.90;;;;;;4939212;29;20212;-96
2021/11/23 21:56:43;;;;;;;49.93;28.03;;;6.60;99.90;;;;;;4958922;29;20200;-95
2021/11/23 21:59:16;;;;;;;43.33;26.43;;;6.60;99.90;;;;;;4922257;29;20178;-95
2021/11/23 22:01:48;;;;;;;44.20;26.40;;;6.70;99.90;;;;;;4949092;28;20185;-94
2021/11/23 22:07:16;;;;;;;41.77;26.00;;;6.70;99.90;;;;;;4965291;23;20225;-94
2021/11/23 22:09:44;;;;;;;49.77;28.40;;;6.70;99.90;;;;;;4927179;29;20323;-95
2021/11/23 22:12:18;;;;;;;46.37;27.77;;;6.70;99.90;;;;;;4944664;23;20233;-95
2021/11/23 22:14:47;;;;;;;45.60;27.30;;;6.70;99.90;;;;;;4972314;28;20196;-95
2021/11/23 22:17:14;;;;;;;47.90;29.07;;;6.70;99.90;;;;;;4949353;29;20217;-95
2021/11/23 22:19:41;;;;;;;45.60;29.10;;;6.70;99.90;;;;;;4949412;29;20252;-95
2021/11/23 22:22:08;;;;;;;48.10;28.97;;;6.70;99.90;;;;;;4963203;28;20259;-95
2021/11/23 22:24:34;;;;;;;48.20;28.87;;;6.70;99.90;;;;;;4952751;28;20291;-95
2021/11/23 22:27:11;;;;;;;49.27;29.17;;;6.70;99.90;;;;;;4951973;28;20279;-95
2021/11/23 22:29:37;;;;;;;45.87;29.00;;;6.70;99.90;;;;;;4951199;29;20237;-96
2021/11/23 22:32:03;;;;;;;45.37;28.80;;;6.70;99.90;;;;;;4964347;28;20218;-95
2021/11/23 22:34:29;;;;;;;49.50;28.40;;;6.70;99.90;;;;;;4963417;28;20189;-96
2021/11/23 22:36:59;;;;;;;47.97;29.13;;;6.70;99.90;;;;;;4963707;28;20182;-96
2021/11/23 22:39:25;;;;;;;49.70;30.03;;;6.70;99.90;;;;;;4962112;29;20228;-95
2021/11/23 22:41:52;;;;;;;51.63;29.67;;;6.70;99.90;;;;;;4961290;28;20283;-96
2021/11/23 22:44:18;;;;;;;50.57;29.47;;;6.70;99.90;;;;;;4960455;28;20304;-95
2021/11/23 22:46:56;;;;;;;49.30;29.00;;;6.70;99.90;;;;;;4960356;28;20639;-95
2021/11/23 22:49:22;;;;;;;49.43;29.50;;;6.70;99.90;;;;;;4960645;29;20272;-95
2021/11/23 22:51:52;;;;;;;51.93;30.27;;;6.70;99.90;;;;;;4961923;28;20223;-96
2021/11/23 22:54:21;;;;;;;47.60;28.57;;;6.70;99.90;;;;;;4962834;28;20193;-96
2021/11/23 22:56:49;;;;;;;49.40;28.80;;;6.70;99.90;;;;;;4963503;28;20194;-95
2021/11/23 22:59:16;;;;;;;52.73;28.47;;;6.70;99.90;;;;;;4962673;29;20189;-96
2021/11/23 23:01:43;;;;;;;47.97;29.20;;;6.70;99.90;;;;;;4964386;28;20531;-95
2021/11/23 23:04:14;;;;;;;48.37;28.37;;;6.70;99.90;;;;;;4963291;28;20229;-95
2021/11/23 23:07:04;;;;;;;51.70;29.77;;;6.70;99.90;;;;;;4962867;29;20280;-96
2021/11/23 23:09:35;;;;;;;47.90;28.37;;;6.70;99.90;;;;;;4963834;29;20313;-96
2021/11/23 23:12:11;;;;;;;51.10;30.07;;;6.70;99.90;;;;;;4961018;28;20231;-95
2021/11/23 23:14:50;;;;;;;53.17;30.13;;;6.70;99.90;;;;;;4947542;29;20202;-96
2021/11/23 23:17:34;;;;;;;48.47;29.57;;;6.80;99.90;;;;;;4964216;29;20608;-95
2021/11/23 23:20:03;;;;;;;47.27;29.57;;;6.80;99.90;;;;;;4965184;29;20185;-95
2021/11/23 23:22:32;;;;;;;50.03;30.90;;;6.80;99.90;;;;;;4963583;28;20674;-95
2021/11/23 23:25:02;;;;;;;51.07;30.40;;;6.80;99.90;;;;;;4963919;28;20189;-95
2021/11/23 23:28:20;;;;;;;57.60;30.67;;;6.80;99.90;;;;;;4964216;28;20190;-95
2021/11/23 23:30:49;;;;;;;52.93;30.03;;;6.80;99.90;;;;;;4966830;29;20192;-96
2021/11/23 23:33:22;;;;;;;57.37;31.63;;;6.80;99.90;;;;;;4966524;28;20212;-95
2021/11/23 23:35:50;;;;;;;58.93;31.87;;;6.80;99.90;;;;;;4967483;28;20177;-95
2021/11/23 23:38:29;;;;;;;59.73;31.20;;;6.70;99.90;;;;;;4965515;28;20209;-96
2021/11/23 23:40:55;;;;;;;61.20;31.60;;;6.70;99.90;;;;;;4963496;29;20529;-95
2021/11/23 23:43:23;;;;;;;59.17;32.57;;;6.80;99.90;;;;;;4950003;29;20248;-96
2021/11/23 23:45:52;;;;;;;56.20;30.90;;;6.70;99.90;;;;;;4948125;29;20229;-96
2021/11/23 23:48:58;;;;;;;61.13;32.87;;;6.80;99.90;;;;;;4965241;28;20200;-95
2021/11/23 23:51:28;;;;;;;59.27;33.33;;;6.70;99.90;;;;;;4968140;28;20176;-95
2021/11/23 23:54:04;;;;;;;57.13;31.33;;;6.80;99.90;;;;;;4967488;29;20173;-94
2021/11/23 23:56:37;;;;;;;64.93;33.00;;;6.70;99.90;;;;;;4952304;28;20197;-96
2021/11/23 23:59:19;;;;;;;59.10;31.83;;;6.70;99.90;;;;;;4968300;29;20181;-96
